sensor_id;sensor_type;location;lat;lon;timestamp;P1;durP1;ratioP1;P2;durP2;ratioP2
77160;SDS011;66135;0.000;0.000;2023-05-10T00:04:11;0.40;;;0.00;;
77160;SDS011;66135;0.000;0.000;2023-05-10T00:09:01;0.30;;;0.20;;
77160;SDS011;66135;0.000;0.000;2023-05-10T00:11:28;0.82;;;0.20;;
77160;SDS011;66135;0.000;0.000;2023-05-10T00:16:18;0.53;;;0.23;;
77160;SDS011;66135;0.000;0.000;2023-05-10T00:21:09;0.32;;;0.22;;
77160;SDS011;66135;0.000;0.000;2023-05-10T00:25:59;0.50;;;0.20;;
77160;SDS011;66135;0.000;0.000;2023-05-10T00:28:26;0.73;;;0.13;;
77160;SDS011;66135;0.000;0.000;2023-05-10T00:30:52;0.60;;;0.10;;
77160;SDS011;66135;0.000;0.000;2023-05-10T00:33:17;0.45;;;0.22;;
77160;SDS011;66135;0.000;0.000;2023-05-10T00:35:43;0.32;;;0.20;;
77160;SDS011;66135;0.000;0.000;2023-05-10T00:38:08;1.23;;;0.20;;
77160;SDS011;66135;0.000;0.000;2023-05-10T00:40:35;0.35;;;0.20;;
77160;SDS011;66135;0.000;0.000;2023-05-10T00:43:02;0.45;;;0.17;;
77160;SDS011;66135;0.000;0.000;2023-05-10T00:45:28;1.20;;;0.20;;
77160;SDS011;66135;0.000;0.000;2023-05-10T00:47:54;0.60;;;0.20;;
77160;SDS011;66135;0.000;0.000;2023-05-10T00:50:23;0.35;;;0.28;;
77160;SDS011;66135;0.000;0.000;2023-05-10T00:52:49;0.55;;;0.20;;
77160;SDS011;66135;0.000;0.000;2023-05-10T00:57:40;1.17;;;0.10;;
77160;SDS011;66135;0.000;0.000;2023-05-10T01:00:07;1.67;;;0.43;;
77160;SDS011;66135;0.000;0.000;2023-05-10T01:04:59;0.52;;;0.17;;
77160;SDS011;66135;0.000;0.000;2023-05-10T01:07:25;0.60;;;0.22;;
77160;SDS011;66135;0.000;0.000;2023-05-10T01:09:50;0.68;;;0.60;;
77160;SDS011;66135;0.000;0.000;2023-05-10T01:12:16;0.50;;;0.20;;
77160;SDS011;66135;0.000;0.000;2023-05-10T01:14:41;0.80;;;0.30;;
77160;SDS011;66135;0.000;0.000;2023-05-10T01:17:07;0.40;;;0.10;;
77160;SDS011;66135;0.000;0.000;2023-05-10T01:19:34;1.25;;;0.30;;
77160;SDS011;66135;0.000;0.000;2023-05-10T01:22:09;0.98;;;0.20;;
77160;SDS011;66135;0.000;0.000;2023-05-10T01:33:06;0.73;;;0.20;;
77160;SDS011;66135;0.000;0.000;2023-05-10T01:36:01;0.77;;;0.35;;
77160;SDS011;66135;0.000;0.000;2023-05-10T01:38:58;0.75;;;0.75;;
77160;SDS011;66135;0.000;0.000;2023-05-10T01:41:39;0.70;;;0.35;;
77160;SDS011;66135;0.000;0.000;2023-05-10T01:47:12;2.28;;;0.30;;
77160;SDS011;66135;0.000;0.000;2023-05-10T01:49:52;1.00;;;0.35;;
77160;SDS011;66135;0.000;0.000;2023-05-10T01:52:22;0.43;;;0.30;;
77160;SDS011;66135;0.000;0.000;2023-05-10T01:54:56;0.85;;;0.35;;
77160;SDS011;66135;0.000;0.000;2023-05-10T01:57:32;0.50;;;0.20;;
77160;SDS011;66135;0.000;0.000;2023-05-10T01:59:59;0.57;;;0.40;;
77160;SDS011;66135;0.000;0.000;2023-05-10T02:02:36;1.52;;;0.30;;
77160;SDS011;66135;0.000;0.000;2023-05-10T02:05:04;0.60;;;0.50;;
77160;SDS011;66135;0.000;0.000;2023-05-10T02:07:32;0.60;;;0.30;;
77160;SDS011;66135;0.000;0.000;2023-05-10T02:10:01;0.70;;;0.30;;
77160;SDS011;66135;0.000;0.000;2023-05-10T02:12:37;0.70;;;0.30;;
77160;SDS011;66135;0.000;0.000;2023-05-10T02:15:06;1.08;;;0.35;;
77160;SDS011;66135;0.000;0.000;2023-05-10T02:17:34;0.77;;;0.20;;
77160;SDS011;66135;0.000;0.000;2023-05-10T02:20:02;0.55;;;0.17;;
77160;SDS011;66135;0.000;0.000;2023-05-10T02:22:37;0.75;;;0.20;;
77160;SDS011;66135;0.000;0.000;2023-05-10T02:25:05;1.75;;;0.20;;
77160;SDS011;66135;0.000;0.000;2023-05-10T02:27:33;0.90;;;0.60;;
77160;SDS011;66135;0.000;0.000;2023-05-10T02:29:59;0.50;;;0.30;;
77160;SDS011;66135;0.000;0.000;2023-05-10T02:32:26;1.17;;;0.30;;
77160;SDS011;66135;0.000;0.000;2023-05-10T02:37:19;0.95;;;0.60;;
77160;SDS011;66135;0.000;0.000;2023-05-10T02:39:49;0.75;;;0.73;;
77160;SDS011;66135;0.000;0.000;2023-05-10T02:42:17;0.82;;;0.32;;
77160;SDS011;66135;0.000;0.000;2023-05-10T02:44:47;0.80;;;0.40;;
77160;SDS011;66135;0.000;0.000;2023-05-10T02:47:15;2.17;;;0.52;;
77160;SDS011;66135;0.000;0.000;2023-05-10T02:52:25;0.98;;;0.55;;
77160;SDS011;66135;0.000;0.000;2023-05-10T02:54:55;1.02;;;0.47;;
77160;SDS011;66135;0.000;0.000;2023-05-10T02:57:25;1.00;;;0.45;;
77160;SDS011;66135;0.000;0.000;2023-05-10T02:59:52;0.88;;;0.40;;
77160;SDS011;66135;0.000;0.000;2023-05-10T03:02:18;1.33;;;0.63;;
77160;SDS011;66135;0.000;0.000;2023-05-10T03:04:45;2.22;;;0.60;;
77160;SDS011;66135;0.000;0.000;2023-05-10T03:07:10;1.15;;;0.60;;
77160;SDS011;66135;0.000;0.000;2023-05-10T03:09:36;1.13;;;0.63;;
77160;SDS011;66135;0.000;0.000;2023-05-10T03:12:09;1.20;;;1.02;;
77160;SDS011;66135;0.000;0.000;2023-05-10T03:14:49;1.63;;;0.52;;
77160;SDS011;66135;0.000;0.000;2023-05-10T03:20:04;1.80;;;0.70;;
77160;SDS011;66135;0.000;0.000;2023-05-10T03:22:37;1.23;;;0.70;;
77160;SDS011;66135;0.000;0.000;2023-05-10T03:25:06;1.15;;;0.75;;
77160;SDS011;66135;0.000;0.000;2023-05-10T03:27:40;1.02;;;0.50;;
77160;SDS011;66135;0.000;0.000;2023-05-10T03:30:08;1.67;;;1.30;;
77160;SDS011;66135;0.000;0.000;2023-05-10T03:32:36;1.70;;;0.98;;
77160;SDS011;66135;0.000;0.000;2023-05-10T03:35:08;1.65;;;0.95;;
77160;SDS011;66135;0.000;0.000;2023-05-10T03:37:35;1.42;;;0.85;;
77160;SDS011;66135;0.000;0.000;2023-05-10T03:40:01;2.00;;;1.50;;
77160;SDS011;66135;0.000;0.000;2023-05-10T03:42:27;2.33;;;0.93;;
77160;SDS011;66135;0.000;0.000;2023-05-10T03:47:18;1.85;;;1.75;;
77160;SDS011;66135;0.000;0.000;2023-05-10T03:52:08;1.67;;;0.77;;
77160;SDS011;66135;0.000;0.000;2023-05-10T03:54:34;1.90;;;1.20;;
77160;SDS011;66135;0.000;0.000;2023-05-10T03:56:59;2.42;;;1.42;;
77160;SDS011;66135;0.000;0.000;2023-05-10T03:59:27;1.88;;;1.10;;
77160;SDS011;66135;0.000;0.000;2023-05-10T04:01:52;2.03;;;1.20;;
77160;SDS011;66135;0.000;0.000;2023-05-10T04:04:17;2.90;;;1.55;;
77160;SDS011;66135;0.000;0.000;2023-05-10T04:06:43;2.28;;;1.45;;
77160;SDS011;66135;0.000;0.000;2023-05-10T04:09:09;1.77;;;1.00;;
77160;SDS011;66135;0.000;0.000;2023-05-10T04:11:35;2.55;;;1.10;;
77160;SDS011;66135;0.000;0.000;2023-05-10T04:14:01;1.52;;;0.95;;
77160;SDS011;66135;0.000;0.000;2023-05-10T04:16:26;3.03;;;1.20;;
77160;SDS011;66135;0.000;0.000;2023-05-10T04:21:17;2.88;;;1.58;;
77160;SDS011;66135;0.000;0.000;2023-05-10T04:23:43;2.20;;;1.40;;
77160;SDS011;66135;0.000;0.000;2023-05-10T04:26:08;3.00;;;1.80;;
77160;SDS011;66135;0.000;0.000;2023-05-10T04:28:34;3.33;;;1.85;;
77160;SDS011;66135;0.000;0.000;2023-05-10T04:31:03;3.20;;;1.52;;
77160;SDS011;66135;0.000;0.000;2023-05-10T04:33:33;4.88;;;2.72;;
77160;SDS011;66135;0.000;0.000;2023-05-10T04:35:58;5.07;;;2.72;;
77160;SDS011;66135;0.000;0.000;2023-05-10T04:38:24;5.40;;;3.17;;
77160;SDS011;66135;0.000;0.000;2023-05-10T04:40:50;5.60;;;2.95;;
77160;SDS011;66135;0.000;0.000;2023-05-10T04:43:15;6.22;;;3.58;;
77160;SDS011;66135;0.000;0.000;2023-05-10T04:45:41;6.72;;;3.70;;
77160;SDS011;66135;0.000;0.000;2023-05-10T04:48:06;4.25;;;2.63;;
77160;SDS011;66135;0.000;0.000;2023-05-10T04:50:32;6.22;;;3.58;;
77160;SDS011;66135;0.000;0.000;2023-05-10T04:52:58;5.03;;;2.90;;
77160;SDS011;66135;0.000;0.000;2023-05-10T04:55:23;6.75;;;3.70;;
77160;SDS011;66135;0.000;0.000;2023-05-10T04:57:49;4.45;;;2.83;;
77160;SDS011;66135;0.000;0.000;2023-05-10T05:00:14;7.00;;;3.38;;
77160;SDS011;66135;0.000;0.000;2023-05-10T05:05:11;6.95;;;3.75;;
77160;SDS011;66135;0.000;0.000;2023-05-10T05:07:37;7.90;;;3.78;;
77160;SDS011;66135;0.000;0.000;2023-05-10T05:10:04;7.18;;;3.85;;
77160;SDS011;66135;0.000;0.000;2023-05-10T05:12:31;7.25;;;3.65;;
77160;SDS011;66135;0.000;0.000;2023-05-10T05:14:56;6.57;;;3.65;;
77160;SDS011;66135;0.000;0.000;2023-05-10T05:17:22;7.30;;;3.85;;
77160;SDS011;66135;0.000;0.000;2023-05-10T05:19:47;6.72;;;3.97;;
77160;SDS011;66135;0.000;0.000;2023-05-10T05:22:12;6.93;;;4.28;;
77160;SDS011;66135;0.000;0.000;2023-05-10T05:24:38;7.95;;;4.32;;
77160;SDS011;66135;0.000;0.000;2023-05-10T05:27:03;7.15;;;4.20;;
77160;SDS011;66135;0.000;0.000;2023-05-10T05:29:29;7.28;;;4.00;;
77160;SDS011;66135;0.000;0.000;2023-05-10T05:31:54;5.93;;;4.18;;
77160;SDS011;66135;0.000;0.000;2023-05-10T05:34:20;7.82;;;4.65;;
77160;SDS011;66135;0.000;0.000;2023-05-10T05:36:46;6.97;;;4.20;;
77160;SDS011;66135;0.000;0.000;2023-05-10T05:39:12;7.60;;;4.15;;
77160;SDS011;66135;0.000;0.000;2023-05-10T05:41:37;7.63;;;4.15;;
77160;SDS011;66135;0.000;0.000;2023-05-10T05:44:02;8.98;;;4.82;;
77160;SDS011;66135;0.000;0.000;2023-05-10T05:46:28;10.45;;;4.20;;
77160;SDS011;66135;0.000;0.000;2023-05-10T05:48:53;6.95;;;4.18;;
77160;SDS011;66135;0.000;0.000;2023-05-10T05:51:19;7.75;;;4.70;;
77160;SDS011;66135;0.000;0.000;2023-05-10T05:53:44;8.38;;;3.88;;
77160;SDS011;66135;0.000;0.000;2023-05-10T05:56:10;6.55;;;4.15;;
77160;SDS011;66135;0.000;0.000;2023-05-10T05:58:35;7.40;;;4.55;;
77160;SDS011;66135;0.000;0.000;2023-05-10T06:01:00;7.90;;;4.50;;
77160;SDS011;66135;0.000;0.000;2023-05-10T06:03:26;9.10;;;4.82;;
77160;SDS011;66135;0.000;0.000;2023-05-10T06:05:51;8.95;;;4.80;;
77160;SDS011;66135;0.000;0.000;2023-05-10T06:08:17;8.50;;;4.97;;
77160;SDS011;66135;0.000;0.000;2023-05-10T06:10:42;8.68;;;4.85;;
77160;SDS011;66135;0.000;0.000;2023-05-10T06:13:08;7.60;;;4.50;;
77160;SDS011;66135;0.000;0.000;2023-05-10T06:15:33;8.52;;;5.28;;
77160;SDS011;66135;0.000;0.000;2023-05-10T06:17:59;10.15;;;5.25;;
77160;SDS011;66135;0.000;0.000;2023-05-10T06:20:25;10.20;;;4.97;;
77160;SDS011;66135;0.000;0.000;2023-05-10T06:22:50;8.73;;;5.15;;
77160;SDS011;66135;0.000;0.000;2023-05-10T06:25:16;9.65;;;5.05;;
77160;SDS011;66135;0.000;0.000;2023-05-10T06:27:43;9.35;;;4.90;;
77160;SDS011;66135;0.000;0.000;2023-05-10T06:30:08;7.13;;;4.28;;
77160;SDS011;66135;0.000;0.000;2023-05-10T06:32:34;10.25;;;5.22;;
77160;SDS011;66135;0.000;0.000;2023-05-10T06:34:59;9.77;;;5.68;;
77160;SDS011;66135;0.000;0.000;2023-05-10T06:37:25;12.32;;;5.22;;
77160;SDS011;66135;0.000;0.000;2023-05-10T06:39:50;9.00;;;5.72;;
77160;SDS011;66135;0.000;0.000;2023-05-10T06:42:16;8.15;;;4.93;;
77160;SDS011;66135;0.000;0.000;2023-05-10T06:44:41;9.05;;;5.05;;
77160;SDS011;66135;0.000;0.000;2023-05-10T06:47:07;8.10;;;4.78;;
77160;SDS011;66135;0.000;0.000;2023-05-10T06:49:32;7.78;;;4.50;;
77160;SDS011;66135;0.000;0.000;2023-05-10T06:51:57;8.93;;;4.82;;
77160;SDS011;66135;0.000;0.000;2023-05-10T06:54:23;9.25;;;5.43;;
77160;SDS011;66135;0.000;0.000;2023-05-10T06:59:13;8.60;;;4.55;;
77160;SDS011;66135;0.000;0.000;2023-05-10T07:01:40;7.00;;;4.20;;
77160;SDS011;66135;0.000;0.000;2023-05-10T07:04:05;8.43;;;4.88;;
77160;SDS011;66135;0.000;0.000;2023-05-10T07:06:32;8.90;;;4.50;;
77160;SDS011;66135;0.000;0.000;2023-05-10T07:08:58;8.18;;;4.93;;
77160;SDS011;66135;0.000;0.000;2023-05-10T07:11:24;6.32;;;4.03;;
77160;SDS011;66135;0.000;0.000;2023-05-10T07:13:49;7.78;;;4.95;;
77160;SDS011;66135;0.000;0.000;2023-05-10T07:16:14;6.53;;;4.68;;
77160;SDS011;66135;0.000;0.000;2023-05-10T07:18:40;7.07;;;4.72;;
77160;SDS011;66135;0.000;0.000;2023-05-10T07:21:05;7.10;;;4.05;;
77160;SDS011;66135;0.000;0.000;2023-05-10T07:23:31;7.05;;;4.65;;
77160;SDS011;66135;0.000;0.000;2023-05-10T07:25:56;8.38;;;4.80;;
77160;SDS011;66135;0.000;0.000;2023-05-10T07:28:22;6.07;;;3.65;;
77160;SDS011;66135;0.000;0.000;2023-05-10T07:30:49;8.30;;;4.13;;
77160;SDS011;66135;0.000;0.000;2023-05-10T07:35:41;7.45;;;4.50;;
77160;SDS011;66135;0.000;0.000;2023-05-10T07:40:32;6.22;;;3.80;;
77160;SDS011;66135;0.000;0.000;2023-05-10T07:42:57;8.32;;;4.78;;
77160;SDS011;66135;0.000;0.000;2023-05-10T07:45:23;7.18;;;4.68;;
77160;SDS011;66135;0.000;0.000;2023-05-10T07:47:49;7.03;;;4.43;;
77160;SDS011;66135;0.000;0.000;2023-05-10T07:52:40;6.68;;;3.90;;
77160;SDS011;66135;0.000;0.000;2023-05-10T07:57:32;6.57;;;3.95;;
77160;SDS011;66135;0.000;0.000;2023-05-10T07:59:58;6.43;;;4.00;;
77160;SDS011;66135;0.000;0.000;2023-05-10T08:02:24;6.90;;;4.13;;
77160;SDS011;66135;0.000;0.000;2023-05-10T08:07:14;6.28;;;3.78;;
77160;SDS011;66135;0.000;0.000;2023-05-10T08:09:40;6.47;;;4.57;;
77160;SDS011;66135;0.000;0.000;2023-05-10T08:12:05;6.68;;;4.45;;
77160;SDS011;66135;0.000;0.000;2023-05-10T08:16:56;6.22;;;4.03;;
77160;SDS011;66135;0.000;0.000;2023-05-10T08:21:48;6.40;;;4.07;;
77160;SDS011;66135;0.000;0.000;2023-05-10T08:24:13;8.15;;;5.25;;
77160;SDS011;66135;0.000;0.000;2023-05-10T08:26:39;6.60;;;4.72;;
77160;SDS011;66135;0.000;0.000;2023-05-10T08:31:30;7.57;;;4.35;;
77160;SDS011;66135;0.000;0.000;2023-05-10T08:33:55;6.80;;;3.85;;
77160;SDS011;66135;0.000;0.000;2023-05-10T08:36:20;7.50;;;4.72;;
77160;SDS011;66135;0.000;0.000;2023-05-10T08:38:52;6.35;;;4.10;;
77160;SDS011;66135;0.000;0.000;2023-05-10T08:41:26;7.68;;;4.90;;
77160;SDS011;66135;0.000;0.000;2023-05-10T08:43:52;6.60;;;4.28;;
77160;SDS011;66135;0.000;0.000;2023-05-10T08:46:20;7.93;;;4.38;;
77160;SDS011;66135;0.000;0.000;2023-05-10T08:48:47;6.65;;;3.88;;
77160;SDS011;66135;0.000;0.000;2023-05-10T08:51:14;6.78;;;4.72;;
77160;SDS011;66135;0.000;0.000;2023-05-10T08:53:43;5.25;;;3.72;;
77160;SDS011;66135;0.000;0.000;2023-05-10T08:56:09;6.72;;;3.95;;
77160;SDS011;66135;0.000;0.000;2023-05-10T09:01:01;7.00;;;3.63;;
77160;SDS011;66135;0.000;0.000;2023-05-10T09:03:28;5.68;;;3.95;;
77160;SDS011;66135;0.000;0.000;2023-05-10T09:05:53;7.03;;;4.28;;
77160;SDS011;66135;0.000;0.000;2023-05-10T09:08:21;7.03;;;4.07;;
77160;SDS011;66135;0.000;0.000;2023-05-10T09:11:08;6.18;;;3.67;;
77160;SDS011;66135;0.000;0.000;2023-05-10T09:13:35;5.47;;;3.47;;
77160;SDS011;66135;0.000;0.000;2023-05-10T09:16:01;7.47;;;4.40;;
77160;SDS011;66135;0.000;0.000;2023-05-10T09:18:27;6.50;;;3.33;;
77160;SDS011;66135;0.000;0.000;2023-05-10T09:20:53;7.32;;;4.32;;
77160;SDS011;66135;0.000;0.000;2023-05-10T09:23:19;5.22;;;3.35;;
77160;SDS011;66135;0.000;0.000;2023-05-10T09:25:44;5.82;;;3.90;;
77160;SDS011;66135;0.000;0.000;2023-05-10T09:28:11;6.40;;;3.42;;
77160;SDS011;66135;0.000;0.000;2023-05-10T09:33:02;6.53;;;3.75;;
77160;SDS011;66135;0.000;0.000;2023-05-10T09:35:28;5.90;;;3.08;;
77160;SDS011;66135;0.000;0.000;2023-05-10T09:37:59;5.25;;;3.28;;
77160;SDS011;66135;0.000;0.000;2023-05-10T09:40:32;4.47;;;2.95;;
77160;SDS011;66135;0.000;0.000;2023-05-10T09:43:01;4.95;;;3.20;;
77160;SDS011;66135;0.000;0.000;2023-05-10T09:45:34;5.32;;;3.40;;
77160;SDS011;66135;0.000;0.000;2023-05-10T09:48:01;4.28;;;2.83;;
77160;SDS011;66135;0.000;0.000;2023-05-10T09:50:28;6.72;;;3.28;;
77160;SDS011;66135;0.000;0.000;2023-05-10T09:53:00;4.10;;;2.63;;
77160;SDS011;66135;0.000;0.000;2023-05-10T09:55:43;5.57;;;3.10;;
77160;SDS011;66135;0.000;0.000;2023-05-10T09:58:11;5.22;;;2.70;;
77160;SDS011;66135;0.000;0.000;2023-05-10T10:00:38;4.38;;;2.67;;
77160;SDS011;66135;0.000;0.000;2023-05-10T10:03:05;6.35;;;3.08;;
77160;SDS011;66135;0.000;0.000;2023-05-10T10:05:32;5.43;;;3.10;;
77160;SDS011;66135;0.000;0.000;2023-05-10T10:07:59;5.70;;;3.15;;
77160;SDS011;66135;0.000;0.000;2023-05-10T10:10:26;5.25;;;4.15;;
77160;SDS011;66135;0.000;0.000;2023-05-10T10:12:52;4.85;;;2.85;;
77160;SDS011;66135;0.000;0.000;2023-05-10T10:15:20;4.13;;;2.60;;
77160;SDS011;66135;0.000;0.000;2023-05-10T10:17:46;4.75;;;2.97;;
77160;SDS011;66135;0.000;0.000;2023-05-10T10:20:13;4.80;;;2.78;;
77160;SDS011;66135;0.000;0.000;2023-05-10T10:22:39;5.53;;;2.90;;
77160;SDS011;66135;0.000;0.000;2023-05-10T10:25:05;4.13;;;2.70;;
77160;SDS011;66135;0.000;0.000;2023-05-10T10:27:43;5.43;;;2.72;;
77160;SDS011;66135;0.000;0.000;2023-05-10T10:33:13;4.88;;;3.40;;
77160;SDS011;66135;0.000;0.000;2023-05-10T10:35:47;5.53;;;3.08;;
77160;SDS011;66135;0.000;0.000;2023-05-10T10:38:13;4.38;;;2.90;;
77160;SDS011;66135;0.000;0.000;2023-05-10T10:43:23;4.88;;;2.80;;
77160;SDS011;66135;0.000;0.000;2023-05-10T10:52:12;3.75;;;2.75;;
77160;SDS011;66135;0.000;0.000;2023-05-10T10:54:40;4.75;;;3.13;;
77160;SDS011;66135;0.000;0.000;2023-05-10T10:57:10;10.77;;;3.35;;
77160;SDS011;66135;0.000;0.000;2023-05-10T10:59:41;3.85;;;2.63;;
77160;SDS011;66135;0.000;0.000;2023-05-10T11:02:08;4.82;;;3.38;;
77160;SDS011;66135;0.000;0.000;2023-05-10T11:04:43;5.25;;;3.20;;
77160;SDS011;66135;0.000;0.000;2023-05-10T11:07:17;6.20;;;3.08;;
77160;SDS011;66135;0.000;0.000;2023-05-10T11:09:44;5.47;;;3.58;;
77160;SDS011;66135;0.000;0.000;2023-05-10T11:12:11;5.28;;;3.95;;
77160;SDS011;66135;0.000;0.000;2023-05-10T11:14:37;5.97;;;4.03;;
77160;SDS011;66135;0.000;0.000;2023-05-10T11:17:21;6.25;;;4.40;;
77160;SDS011;66135;0.000;0.000;2023-05-10T11:22:50;5.07;;;4.30;;
77160;SDS011;66135;0.000;0.000;2023-05-10T11:25:17;6.10;;;4.25;;
77160;SDS011;66135;0.000;0.000;2023-05-10T11:27:51;6.40;;;3.50;;
77160;SDS011;66135;0.000;0.000;2023-05-10T11:30:17;5.30;;;3.92;;
77160;SDS011;66135;0.000;0.000;2023-05-10T11:32:42;6.53;;;4.07;;
77160;SDS011;66135;0.000;0.000;2023-05-10T11:35:09;7.38;;;4.13;;
77160;SDS011;66135;0.000;0.000;2023-05-10T11:37:36;5.70;;;4.20;;
77160;SDS011;66135;0.000;0.000;2023-05-10T11:40:06;5.97;;;3.97;;
77160;SDS011;66135;0.000;0.000;2023-05-10T11:42:36;6.28;;;4.10;;
77160;SDS011;66135;0.000;0.000;2023-05-10T11:45:02;5.82;;;4.55;;
77160;SDS011;66135;0.000;0.000;2023-05-10T11:47:28;5.30;;;3.38;;
77160;SDS011;66135;0.000;0.000;2023-05-10T11:49:53;5.30;;;3.70;;
77160;SDS011;66135;0.000;0.000;2023-05-10T11:52:19;6.07;;;3.97;;
77160;SDS011;66135;0.000;0.000;2023-05-10T11:54:46;4.47;;;3.45;;
77160;SDS011;66135;0.000;0.000;2023-05-10T11:57:17;6.57;;;3.72;;
77160;SDS011;66135;0.000;0.000;2023-05-10T11:59:44;4.82;;;3.75;;
77160;SDS011;66135;0.000;0.000;2023-05-10T12:02:09;6.07;;;4.57;;
77160;SDS011;66135;0.000;0.000;2023-05-10T12:04:35;4.70;;;3.83;;
77160;SDS011;66135;0.000;0.000;2023-05-10T12:07:01;4.75;;;3.40;;
77160;SDS011;66135;0.000;0.000;2023-05-10T12:09:27;4.90;;;3.45;;
77160;SDS011;66135;0.000;0.000;2023-05-10T12:14:21;5.53;;;3.22;;
77160;SDS011;66135;0.000;0.000;2023-05-10T12:16:47;4.75;;;3.38;;
77160;SDS011;66135;0.000;0.000;2023-05-10T12:19:12;7.97;;;3.40;;
77160;SDS011;66135;0.000;0.000;2023-05-10T12:21:44;4.55;;;3.17;;
77160;SDS011;66135;0.000;0.000;2023-05-10T12:24:09;5.93;;;3.35;;
77160;SDS011;66135;0.000;0.000;2023-05-10T12:26:36;4.13;;;3.30;;
77160;SDS011;66135;0.000;0.000;2023-05-10T12:31:57;4.32;;;3.15;;
77160;SDS011;66135;0.000;0.000;2023-05-10T12:34:35;4.88;;;3.17;;
77160;SDS011;66135;0.000;0.000;2023-05-10T12:39:40;3.47;;;2.95;;
77160;SDS011;66135;0.000;0.000;2023-05-10T12:42:06;5.07;;;3.25;;
77160;SDS011;66135;0.000;0.000;2023-05-10T12:44:32;5.20;;;3.15;;
77160;SDS011;66135;0.000;0.000;2023-05-10T12:49:22;4.73;;;3.10;;
77160;SDS011;66135;0.000;0.000;2023-05-10T12:54:13;5.18;;;2.92;;
77160;SDS011;66135;0.000;0.000;2023-05-10T12:56:39;4.60;;;3.13;;
77160;SDS011;66135;0.000;0.000;2023-05-10T12:59:05;4.22;;;3.22;;
77160;SDS011;66135;0.000;0.000;2023-05-10T13:01:31;4.35;;;3.53;;
77160;SDS011;66135;0.000;0.000;2023-05-10T13:03:56;4.22;;;3.55;;
77160;SDS011;66135;0.000;0.000;2023-05-10T13:06:22;5.43;;;3.65;;
77160;SDS011;66135;0.000;0.000;2023-05-10T13:08:47;4.43;;;3.38;;
77160;SDS011;66135;0.000;0.000;2023-05-10T13:11:13;5.97;;;3.25;;
77160;SDS011;66135;0.000;0.000;2023-05-10T13:13:42;5.72;;;4.10;;
77160;SDS011;66135;0.000;0.000;2023-05-10T13:18:32;5.40;;;3.73;;
77160;SDS011;66135;0.000;0.000;2023-05-10T13:23:23;4.72;;;3.20;;
77160;SDS011;66135;0.000;0.000;2023-05-10T13:25:48;4.50;;;3.35;;
77160;SDS011;66135;0.000;0.000;2023-05-10T13:28:14;5.53;;;4.78;;
77160;SDS011;66135;0.000;0.000;2023-05-10T13:30:40;4.80;;;3.58;;
77160;SDS011;66135;0.000;0.000;2023-05-10T13:35:31;5.30;;;4.17;;
77160;SDS011;66135;0.000;0.000;2023-05-10T13:40:22;5.15;;;3.70;;
77160;SDS011;66135;0.000;0.000;2023-05-10T13:45:13;5.63;;;3.50;;
77160;SDS011;66135;0.000;0.000;2023-05-10T13:47:38;4.22;;;3.22;;
77160;SDS011;66135;0.000;0.000;2023-05-10T13:50:04;4.15;;;3.53;;
77160;SDS011;66135;0.000;0.000;2023-05-10T13:54:55;3.78;;;3.33;;
77160;SDS011;66135;0.000;0.000;2023-05-10T13:57:21;4.18;;;3.22;;
77160;SDS011;66135;0.000;0.000;2023-05-10T13:59:48;3.72;;;2.80;;
77160;SDS011;66135;0.000;0.000;2023-05-10T14:02:14;4.47;;;3.20;;
77160;SDS011;66135;0.000;0.000;2023-05-10T14:04:39;5.03;;;3.25;;
77160;SDS011;66135;0.000;0.000;2023-05-10T14:07:05;3.95;;;3.30;;
77160;SDS011;66135;0.000;0.000;2023-05-10T14:09:30;4.85;;;3.45;;
77160;SDS011;66135;0.000;0.000;2023-05-10T14:11:56;3.60;;;2.90;;
77160;SDS011;66135;0.000;0.000;2023-05-10T14:14:21;3.83;;;3.00;;
77160;SDS011;66135;0.000;0.000;2023-05-10T14:16:46;4.05;;;3.30;;
77160;SDS011;66135;0.000;0.000;2023-05-10T14:19:12;4.03;;;3.17;;
77160;SDS011;66135;0.000;0.000;2023-05-10T14:21:37;3.88;;;3.20;;
77160;SDS011;66135;0.000;0.000;2023-05-10T14:24:03;5.32;;;2.70;;
77160;SDS011;66135;0.000;0.000;2023-05-10T14:26:29;4.60;;;2.88;;
77160;SDS011;66135;0.000;0.000;2023-05-10T14:29:05;6.10;;;3.10;;
77160;SDS011;66135;0.000;0.000;2023-05-10T14:31:30;3.85;;;2.63;;
77160;SDS011;66135;0.000;0.000;2023-05-10T14:33:56;3.15;;;2.85;;
77160;SDS011;66135;0.000;0.000;2023-05-10T14:36:22;4.03;;;2.75;;
77160;SDS011;66135;0.000;0.000;2023-05-10T14:38:48;4.38;;;2.90;;
77160;SDS011;66135;0.000;0.000;2023-05-10T14:43:42;3.65;;;2.70;;
77160;SDS011;66135;0.000;0.000;2023-05-10T14:46:08;3.15;;;2.63;;
77160;SDS011;66135;0.000;0.000;2023-05-10T14:48:33;5.97;;;3.83;;
77160;SDS011;66135;0.000;0.000;2023-05-10T14:50:59;4.15;;;2.42;;
77160;SDS011;66135;0.000;0.000;2023-05-10T14:53:24;2.90;;;2.63;;
77160;SDS011;66135;0.000;0.000;2023-05-10T14:55:50;3.45;;;2.08;;
77160;SDS011;66135;0.000;0.000;2023-05-10T14:58:15;3.05;;;2.20;;
77160;SDS011;66135;0.000;0.000;2023-05-10T15:00:41;4.35;;;2.58;;
77160;SDS011;66135;0.000;0.000;2023-05-10T15:03:07;4.32;;;2.35;;
77160;SDS011;66135;0.000;0.000;2023-05-10T15:05:32;3.53;;;2.47;;
77160;SDS011;66135;0.000;0.000;2023-05-10T15:07:58;3.47;;;2.70;;
77160;SDS011;66135;0.000;0.000;2023-05-10T15:10:24;2.83;;;2.60;;
77160;SDS011;66135;0.000;0.000;2023-05-10T15:12:50;2.80;;;2.30;;
77160;SDS011;66135;0.000;0.000;2023-05-10T15:15:15;3.45;;;2.50;;
77160;SDS011;66135;0.000;0.000;2023-05-10T15:17:41;3.88;;;2.65;;
77160;SDS011;66135;0.000;0.000;2023-05-10T15:20:06;3.83;;;3.45;;
77160;SDS011;66135;0.000;0.000;2023-05-10T15:24:58;3.40;;;2.40;;
77160;SDS011;66135;0.000;0.000;2023-05-10T15:27:24;3.63;;;2.20;;
77160;SDS011;66135;0.000;0.000;2023-05-10T15:29:50;3.95;;;2.58;;
77160;SDS011;66135;0.000;0.000;2023-05-10T15:32:16;3.17;;;2.10;;
77160;SDS011;66135;0.000;0.000;2023-05-10T15:34:41;2.10;;;1.70;;
77160;SDS011;66135;0.000;0.000;2023-05-10T15:37:06;4.20;;;2.17;;
77160;SDS011;66135;0.000;0.000;2023-05-10T15:39:32;2.80;;;2.47;;
77160;SDS011;66135;0.000;0.000;2023-05-10T15:41:57;3.55;;;1.90;;
77160;SDS011;66135;0.000;0.000;2023-05-10T15:44:22;3.00;;;1.50;;
77160;SDS011;66135;0.000;0.000;2023-05-10T15:46:49;2.95;;;2.17;;
77160;SDS011;66135;0.000;0.000;2023-05-10T15:49:14;2.97;;;1.92;;
77160;SDS011;66135;0.000;0.000;2023-05-10T15:51:39;4.82;;;2.53;;
77160;SDS011;66135;0.000;0.000;2023-05-10T15:54:05;2.47;;;1.70;;
77160;SDS011;66135;0.000;0.000;2023-05-10T15:56:31;2.80;;;2.30;;
77160;SDS011;66135;0.000;0.000;2023-05-10T15:58:57;4.22;;;2.25;;
77160;SDS011;66135;0.000;0.000;2023-05-10T16:01:23;2.40;;;1.70;;
77160;SDS011;66135;0.000;0.000;2023-05-10T16:03:48;2.80;;;2.10;;
77160;SDS011;66135;0.000;0.000;2023-05-10T16:06:14;4.22;;;2.13;;
77160;SDS011;66135;0.000;0.000;2023-05-10T16:08:39;7.38;;;3.58;;
77160;SDS011;66135;0.000;0.000;2023-05-10T16:11:06;6.22;;;4.25;;
77160;SDS011;66135;0.000;0.000;2023-05-10T16:13:31;5.90;;;3.40;;
77160;SDS011;66135;0.000;0.000;2023-05-10T16:15:57;6.60;;;4.10;;
77160;SDS011;66135;0.000;0.000;2023-05-10T16:18:22;9.75;;;4.75;;
77160;SDS011;66135;0.000;0.000;2023-05-10T16:20:48;11.68;;;6.15;;
77160;SDS011;66135;0.000;0.000;2023-05-10T16:23:13;11.57;;;5.05;;
77160;SDS011;66135;0.000;0.000;2023-05-10T16:25:39;9.30;;;4.70;;
77160;SDS011;66135;0.000;0.000;2023-05-10T16:28:05;11.73;;;6.00;;
77160;SDS011;66135;0.000;0.000;2023-05-10T16:30:30;9.43;;;4.35;;
77160;SDS011;66135;0.000;0.000;2023-05-10T16:32:56;9.55;;;4.60;;
77160;SDS011;66135;0.000;0.000;2023-05-10T16:37:48;11.88;;;4.30;;
77160;SDS011;66135;0.000;0.000;2023-05-10T16:42:39;8.60;;;4.03;;
77160;SDS011;66135;0.000;0.000;2023-05-10T16:45:05;8.85;;;3.70;;
77160;SDS011;66135;0.000;0.000;2023-05-10T16:47:34;9.07;;;3.55;;
77160;SDS011;66135;0.000;0.000;2023-05-10T16:50:02;7.32;;;3.30;;
77160;SDS011;66135;0.000;0.000;2023-05-10T16:52:28;7.18;;;2.63;;
77160;SDS011;66135;0.000;0.000;2023-05-10T16:54:54;6.55;;;3.03;;
77160;SDS011;66135;0.000;0.000;2023-05-10T16:57:19;8.82;;;3.95;;
77160;SDS011;66135;0.000;0.000;2023-05-10T16:59:45;7.00;;;3.78;;
77160;SDS011;66135;0.000;0.000;2023-05-10T17:02:11;6.78;;;3.10;;
77160;SDS011;66135;0.000;0.000;2023-05-10T17:04:46;9.45;;;3.20;;